createdAt,value
2023-05-23T00:02:01.837Z,14.60
2023-05-23T00:04:28.908Z,14.60
2023-05-23T00:06:55.913Z,14.50
2023-05-23T00:09:22.940Z,14.50
2023-05-23T00:11:49.769Z,14.50
2023-05-23T00:14:17.342Z,14.50
2023-05-23T00:16:46.485Z,14.40
2023-05-23T00:19:17.214Z,14.40
2023-05-23T00:21:49.849Z,14.30
2023-05-23T00:24:18.862Z,14.40
2023-05-23T00:26:46.672Z,14.40
2023-05-23T00:29:16.605Z,14.30
2023-05-23T00:31:47.238Z,14.30
2023-05-23T00:34:18.251Z,14.30
2023-05-23T00:36:47.858Z,14.30
2023-05-23T00:39:19.815Z,14.30
2023-05-23T00:41:51.104Z,14.30
2023-05-23T00:44:20.332Z,14.20
2023-05-23T00:46:52.405Z,14.20
2023-05-23T00:49:20.420Z,14.20
2023-05-23T00:51:49.870Z,14.20
2023-05-23T00:54:22.184Z,14.20
2023-05-23T00:56:49.231Z,14.20
2023-05-23T00:59:17.032Z,14.10
2023-05-23T01:01:47.220Z,14.10
2023-05-23T01:04:16.956Z,14.10
2023-05-23T01:06:47.227Z,14.00
2023-05-23T01:09:18.604Z,14.00
2023-05-23T01:12:00.740Z,13.90
2023-05-23T01:14:37.907Z,13.90
2023-05-23T01:17:16.145Z,13.90
2023-05-23T01:20:02.180Z,13.90
2023-05-23T01:22:53.976Z,13.90
2023-05-23T01:25:37.458Z,13.80
2023-05-23T01:28:07.592Z,13.90
2023-05-23T01:30:40.459Z,13.90
2023-05-23T01:33:09.279Z,13.80
2023-05-23T01:35:37.562Z,13.80
2023-05-23T01:38:04.442Z,13.70
2023-05-23T01:40:31.330Z,13.80
2023-05-23T01:42:58.700Z,13.80
2023-05-23T01:45:28.152Z,13.70
2023-05-23T01:47:56.460Z,13.70
2023-05-23T01:50:24.604Z,13.70
2023-05-23T01:52:52.502Z,13.70
2023-05-23T01:55:22.970Z,13.70
2023-05-23T01:57:56.596Z,13.80
2023-05-23T02:02:37.739Z,13.70
2023-05-23T02:04:00.397Z,13.70
2023-05-23T02:11:58.037Z,13.70
2023-05-23T02:14:26.664Z,13.70
2023-05-23T02:16:54.000Z,13.60
2023-05-23T02:19:21.257Z,13.60
2023-05-23T02:21:48.168Z,13.60
2023-05-23T02:24:15.068Z,13.60
2023-05-23T02:26:42.114Z,13.50
2023-05-23T02:29:11.447Z,13.50
2023-05-23T02:31:38.326Z,13.60
2023-05-23T02:34:05.096Z,13.60
2023-05-23T02:36:33.381Z,13.50
2023-05-23T02:39:00.324Z,13.50
2023-05-23T02:41:27.122Z,13.50
2023-05-23T02:43:54.824Z,13.50
2023-05-23T02:46:21.712Z,13.50
2023-05-23T02:48:48.532Z,13.50
2023-05-23T02:51:15.419Z,13.50
2023-05-23T02:53:42.396Z,13.40
2023-05-23T02:56:10.151Z,13.40
2023-05-23T02:58:37.117Z,13.50
2023-05-23T03:01:05.835Z,13.50
2023-05-23T03:03:34.343Z,13.50
2023-05-23T03:06:03.514Z,13.50
2023-05-23T03:08:30.391Z,13.50
2023-05-23T03:10:57.378Z,13.50
2023-05-23T03:13:24.367Z,13.40
2023-05-23T03:15:51.772Z,13.40
2023-05-23T03:18:18.815Z,13.40
2023-05-23T03:20:45.860Z,13.30
2023-05-23T03:23:12.802Z,13.30
2023-05-23T03:25:40.064Z,13.30
2023-05-23T03:28:07.212Z,13.30
2023-05-23T03:30:34.356Z,13.30
2023-05-23T03:33:02.335Z,13.30
2023-05-23T03:35:29.404Z,13.30
2023-05-23T03:37:56.560Z,13.30
2023-05-23T03:40:23.806Z,13.30
2023-05-23T03:43:05.029Z,13.30
2023-05-23T03:45:32.770Z,13.30
2023-05-23T03:48:00.850Z,13.20
2023-05-23T03:50:28.441Z,13.20
2023-05-23T03:52:55.471Z,13.20
2023-05-23T03:55:24.411Z,13.20
2023-05-23T03:57:52.484Z,13.20
2023-05-23T04:00:19.836Z,13.20
2023-05-23T04:02:47.555Z,13.30
2023-05-23T04:05:14.680Z,13.30
2023-05-23T04:07:42.166Z,13.30
2023-05-23T04:10:10.250Z,13.30
2023-05-23T04:12:37.795Z,13.30
2023-05-23T04:15:05.514Z,13.40
2023-05-23T04:17:32.603Z,13.40
2023-05-23T04:19:59.881Z,13.50
2023-05-23T04:22:26.773Z,13.50
2023-05-23T04:24:53.723Z,13.60
2023-05-23T04:27:22.312Z,13.60
2023-05-23T04:29:49.359Z,13.70
2023-05-23T04:32:18.546Z,13.70
2023-05-23T04:34:45.614Z,13.70
2023-05-23T04:37:12.895Z,13.70
2023-05-23T04:39:40.118Z,13.80
2023-05-23T04:42:07.424Z,13.80
2023-05-23T04:44:37.461Z,13.80
2023-05-23T04:47:04.535Z,13.80
2023-05-23T04:49:34.129Z,13.90
2023-05-23T04:52:01.074Z,14.00
2023-05-23T04:54:27.943Z,14.00
2023-05-23T04:56:54.972Z,14.10
2023-05-23T04:59:21.765Z,14.10
2023-05-23T05:01:48.616Z,14.20
2023-05-23T05:04:16.299Z,14.20
2023-05-23T05:06:43.144Z,14.30
2023-05-23T05:09:09.994Z,14.40
2023-05-23T05:11:36.901Z,14.50
2023-05-23T05:14:03.749Z,14.60
2023-05-23T05:16:30.904Z,14.70
2023-05-23T05:18:57.924Z,14.80
2023-05-23T05:21:24.880Z,14.90
2023-05-23T05:23:52.509Z,15.00
2023-05-23T05:26:19.295Z,15.10
2023-05-23T05:28:46.305Z,15.20
2023-05-23T05:31:15.396Z,15.30
2023-05-23T05:33:46.155Z,15.30
2023-05-23T05:36:13.284Z,15.30
2023-05-23T05:38:40.212Z,15.30
2023-05-23T05:41:09.118Z,15.40
2023-05-23T05:43:36.516Z,15.40
2023-05-23T05:46:03.468Z,15.60
2023-05-23T05:48:30.327Z,15.70
2023-05-23T05:50:57.234Z,15.80
2023-05-23T05:53:24.263Z,15.90
2023-05-23T05:55:51.129Z,16.10
2023-05-23T05:58:17.881Z,16.10
2023-05-23T06:00:45.452Z,16.30
2023-05-23T06:03:15.920Z,16.50
2023-05-23T06:05:43.310Z,16.50
2023-05-23T06:08:10.506Z,16.60
2023-05-23T06:10:39.767Z,16.70
2023-05-23T06:13:06.797Z,16.70
2023-05-23T06:15:33.676Z,16.70
2023-05-23T06:18:00.633Z,16.70
2023-05-23T06:20:27.583Z,16.60
2023-05-23T06:22:54.708Z,16.60
2023-05-23T06:25:21.906Z,16.70
2023-05-23T06:27:48.940Z,16.80
2023-05-23T06:30:16.093Z,16.80
2023-05-23T06:32:42.892Z,16.80
2023-05-23T06:35:10.413Z,16.70
2023-05-23T06:37:37.286Z,16.70
2023-05-23T06:40:04.859Z,16.80
2023-05-23T06:42:31.922Z,16.70
2023-05-23T06:44:58.711Z,16.70
2023-05-23T06:47:25.626Z,16.80
2023-05-23T06:49:52.524Z,16.80
2023-05-23T06:52:19.499Z,16.80
2023-05-23T06:54:46.487Z,17.00
2023-05-23T06:57:13.283Z,17.10
2023-05-23T06:59:40.252Z,17.10
2023-05-23T07:02:07.170Z,17.10
2023-05-23T07:04:34.155Z,17.20
2023-05-23T07:07:02.108Z,17.20
2023-05-23T07:09:29.003Z,17.40
2023-05-23T07:11:55.837Z,17.40
2023-05-23T07:14:22.638Z,17.40
2023-05-23T07:16:49.444Z,17.40
2023-05-23T07:19:16.377Z,17.40
2023-05-23T07:21:43.357Z,17.50
2023-05-23T07:24:10.174Z,17.50
2023-05-23T07:26:39.418Z,17.50
2023-05-23T07:29:07.170Z,17.50
2023-05-23T07:31:34.286Z,17.50
2023-05-23T07:34:01.301Z,17.60
2023-05-23T07:36:29.552Z,17.60
2023-05-23T07:38:56.529Z,17.50
2023-05-23T07:41:25.177Z,17.60
2023-05-23T07:43:51.996Z,17.70
2023-05-23T09:01:56.160Z,18.10
2023-05-23T09:04:23.271Z,18.10
2023-05-23T09:07:10.072Z,18.20
2023-05-23T09:09:36.911Z,18.30
2023-05-23T09:12:03.912Z,18.40
2023-05-23T09:14:32.026Z,18.50
2023-05-23T09:17:04.501Z,18.60
2023-05-23T09:19:31.954Z,18.50
2023-05-23T09:21:58.951Z,18.50
2023-05-23T09:24:35.148Z,18.40
2023-05-23T09:27:02.122Z,18.40
2023-05-23T09:29:28.998Z,18.40
2023-05-23T09:32:10.384Z,18.40
2023-05-23T09:34:41.173Z,18.30
2023-05-23T09:37:08.534Z,18.30
2023-05-23T09:39:38.795Z,18.20
2023-05-23T09:42:06.454Z,18.30
2023-05-23T09:44:41.415Z,18.20
2023-05-23T09:47:08.398Z,18.30
2023-05-23T09:49:35.452Z,18.20
2023-05-23T09:52:02.438Z,18.30
2023-05-23T09:54:29.399Z,18.40
2023-05-23T09:56:57.795Z,18.50
2023-05-23T09:59:28.553Z,18.60
2023-05-23T10:01:57.656Z,18.90
2023-05-23T10:04:26.909Z,19.10
2023-05-23T10:07:00.193Z,19.20
2023-05-23T10:09:31.374Z,19.20
2023-05-23T10:12:16.957Z,19.50
2023-05-23T10:14:46.830Z,19.70
2023-05-23T10:17:26.675Z,19.90
2023-05-23T10:20:08.336Z,20.20
2023-05-23T10:22:38.947Z,20.20
2023-05-23T10:25:08.385Z,20.30
2023-05-23T10:27:35.621Z,20.70
2023-05-23T10:30:03.251Z,20.70
2023-05-23T10:32:30.924Z,20.80
2023-05-23T10:35:29.357Z,21.00
2023-05-23T10:38:09.788Z,21.50
2023-05-23T10:40:57.687Z,21.90
2023-05-23T10:43:31.228Z,22.30
2023-05-23T10:45:58.177Z,22.60
2023-05-23T10:48:40.864Z,22.50
2023-05-23T10:51:15.371Z,21.90
2023-05-23T10:53:44.524Z,22.10
2023-05-23T10:56:20.219Z,22.10
2023-05-23T10:58:47.155Z,22.30
2023-05-23T11:01:20.171Z,22.30
2023-05-23T11:03:47.527Z,22.20
2023-05-23T11:06:42.901Z,22.10
2023-05-23T11:09:18.825Z,22.40
2023-05-23T11:11:55.593Z,22.40
2023-05-23T11:14:32.865Z,22.20
2023-05-23T11:17:30.009Z,22.00
2023-05-23T11:20:09.765Z,22.30
2023-05-23T11:22:37.061Z,22.50
2023-05-23T11:25:09.930Z,22.90
2023-05-23T11:27:40.560Z,22.90
2023-05-23T11:30:13.843Z,22.80
2023-05-23T11:32:42.387Z,22.80
2023-05-23T11:35:10.863Z,22.60
2023-05-23T11:37:41.217Z,22.30
2023-05-23T11:40:40.326Z,22.60
2023-05-23T11:43:10.196Z,22.90
2023-05-23T11:45:38.775Z,22.90
2023-05-23T11:48:16.976Z,22.60
2023-05-23T11:51:02.982Z,22.20
2023-05-23T11:53:30.576Z,21.90
2023-05-23T11:56:00.474Z,22.00
2023-05-23T11:58:35.320Z,21.90
2023-05-23T12:01:10.140Z,21.80
2023-05-23T12:03:57.784Z,21.70
2023-05-23T12:06:26.054Z,21.70
2023-05-23T12:08:53.008Z,21.70
2023-05-23T12:11:19.968Z,21.80
2023-05-23T12:13:47.002Z,22.10
2023-05-23T12:16:15.024Z,22.40
2023-05-23T12:18:43.136Z,22.40
2023-05-23T12:21:10.532Z,22.50
2023-05-23T12:23:39.726Z,22.10
2023-05-23T12:26:07.756Z,21.90
2023-05-23T12:28:37.699Z,21.90
2023-05-23T12:31:17.312Z,22.10
2023-05-23T12:33:47.979Z,22.30
2023-05-23T12:36:21.371Z,22.50
2023-05-23T12:38:48.285Z,22.50
2023-05-23T12:41:20.729Z,22.70
2023-05-23T12:43:55.972Z,22.40
2023-05-23T12:46:24.765Z,22.00
2023-05-23T12:48:52.106Z,21.80
2023-05-23T12:51:19.562Z,21.70
2023-05-23T12:53:46.549Z,21.50
2023-05-23T12:56:13.760Z,21.10
2023-05-23T12:58:40.628Z,20.80
2023-05-23T13:01:07.611Z,20.90
2023-05-23T13:03:34.713Z,21.00
2023-05-23T13:06:01.775Z,21.10
2023-05-23T13:08:29.534Z,21.20
2023-05-23T13:10:57.206Z,21.30
2023-05-23T13:13:24.435Z,21.40
2023-05-23T13:15:51.806Z,21.80
2023-05-23T13:18:19.129Z,22.00
2023-05-23T13:20:46.724Z,22.30
2023-05-23T13:23:14.263Z,22.80
2023-05-23T13:25:41.569Z,23.00
2023-05-23T13:28:08.987Z,22.80
2023-05-23T13:30:36.051Z,22.60
2023-05-23T13:33:03.961Z,22.00
2023-05-23T13:35:31.259Z,21.50
2023-05-23T13:37:58.174Z,21.20
2023-05-23T13:40:25.155Z,21.00
2023-05-23T13:42:52.161Z,20.70
2023-05-23T13:45:20.232Z,20.70
2023-05-23T13:47:47.461Z,20.80
2023-05-23T13:50:14.891Z,20.70
2023-05-23T13:52:44.337Z,20.70
2023-05-23T13:55:12.877Z,20.80
2023-05-23T13:57:39.770Z,21.00
2023-05-23T14:00:08.963Z,21.50
2023-05-23T14:02:36.002Z,21.90
2023-05-23T14:05:03.679Z,22.40
2023-05-23T14:07:30.840Z,22.50
2023-05-23T14:09:58.522Z,22.60
2023-05-23T14:12:26.194Z,22.70
2023-05-23T14:14:53.089Z,22.50
2023-05-23T14:17:19.876Z,22.30
2023-05-23T14:19:47.665Z,22.20
2023-05-23T14:22:14.611Z,22.00
2023-05-23T14:24:41.517Z,21.90
2023-05-23T14:27:10.789Z,21.50
2023-05-23T14:29:38.458Z,21.40
2023-05-23T14:32:05.584Z,21.20
2023-05-23T14:34:32.399Z,21.20
2023-05-23T14:36:59.166Z,21.50
2023-05-23T14:39:25.940Z,21.80
2023-05-23T14:41:52.751Z,22.00
2023-05-23T14:44:19.688Z,21.80
2023-05-23T14:46:50.205Z,21.40
2023-05-23T14:49:17.889Z,21.30
2023-05-23T14:51:50.455Z,21.20
2023-05-23T14:54:18.708Z,21.00
2023-05-23T14:56:45.707Z,20.70
2023-05-23T14:59:12.555Z,20.60
2023-05-23T15:01:40.649Z,20.60
2023-05-23T15:04:09.394Z,20.60
2023-05-23T15:06:37.981Z,20.60
2023-05-23T15:09:05.043Z,20.50
2023-05-23T15:11:32.348Z,20.30
2023-05-23T15:13:59.856Z,20.30
2023-05-23T15:16:27.098Z,20.30
2023-05-23T15:18:54.005Z,20.30
2023-05-23T15:21:21.027Z,20.40
2023-05-23T15:23:47.894Z,20.40
2023-05-23T15:26:14.659Z,20.40
2023-05-23T15:28:41.433Z,20.30
2023-05-23T15:31:08.173Z,20.30
2023-05-23T15:33:35.006Z,20.00
2023-05-23T15:36:02.262Z,19.90
2023-05-23T15:38:29.081Z,19.80
2023-05-23T15:40:56.771Z,20.10
2023-05-23T15:43:25.078Z,20.40
2023-05-23T15:45:52.681Z,20.70
2023-05-23T15:48:19.673Z,20.70
2023-05-23T15:50:46.782Z,20.40
2023-05-23T15:53:13.782Z,20.10
2023-05-23T15:55:42.717Z,20.10
2023-05-23T15:58:10.740Z,20.00
2023-05-23T16:00:37.876Z,19.70
2023-05-23T16:03:05.044Z,19.70
2023-05-23T16:05:32.132Z,19.60
2023-05-23T16:07:58.928Z,19.40
2023-05-23T16:10:25.883Z,19.20
2023-05-23T16:12:52.730Z,19.20
2023-05-23T16:15:19.695Z,19.50
2023-05-23T16:17:46.667Z,19.80
2023-05-23T16:20:13.539Z,20.00
2023-05-23T16:22:41.316Z,20.00
2023-05-23T16:25:10.420Z,20.00
2023-05-23T16:27:37.571Z,20.10
2023-05-23T16:30:06.292Z,20.10
2023-05-23T16:32:34.448Z,19.80
2023-05-23T16:35:01.552Z,19.70
2023-05-23T16:37:28.640Z,19.70
2023-05-23T16:39:55.594Z,19.70
2023-05-23T16:42:22.488Z,19.70
2023-05-23T16:44:49.432Z,19.80
2023-05-23T16:47:16.812Z,19.80
2023-05-23T16:49:43.616Z,20.10
2023-05-23T16:52:11.241Z,20.10
2023-05-23T16:54:38.614Z,20.10
2023-05-23T16:57:06.019Z,19.90
2023-05-23T16:59:33.006Z,19.70
2023-05-23T17:02:00.119Z,19.50
2023-05-23T17:04:26.890Z,19.30
2023-05-23T17:06:53.952Z,19.20
2023-05-23T17:09:22.238Z,19.10
2023-05-23T17:11:49.737Z,18.90
2023-05-23T17:14:16.592Z,18.80
2023-05-23T17:16:46.268Z,18.80
2023-05-23T17:19:13.210Z,18.60
2023-05-23T17:21:50.465Z,18.60
2023-05-23T17:24:17.495Z,18.50
2023-05-23T17:26:44.379Z,18.40
2023-05-23T17:29:11.244Z,18.30
2023-05-23T17:31:38.248Z,18.30
2023-05-23T17:34:05.224Z,18.30
2023-05-23T17:36:32.351Z,18.20
2023-05-23T17:38:59.179Z,18.20
2023-05-23T17:41:26.933Z,18.30
2023-05-23T17:43:53.828Z,18.20
2023-05-23T17:46:20.742Z,18.20
2023-05-23T17:48:48.313Z,18.20
2023-05-23T17:51:15.880Z,18.20
2023-05-23T17:53:43.464Z,18.20
2023-05-23T17:56:10.470Z,18.10
2023-05-23T17:58:38.872Z,18.10
2023-05-23T18:01:07.311Z,18.00
2023-05-23T18:03:34.209Z,17.90
2023-05-23T18:06:01.140Z,17.90
2023-05-23T18:08:28.046Z,17.80
2023-05-23T18:10:55.484Z,17.70
2023-05-23T18:13:22.497Z,17.70
2023-05-23T18:15:49.523Z,17.70
2023-05-23T18:18:17.981Z,17.60
2023-05-23T18:20:45.138Z,17.50
2023-05-23T18:23:12.177Z,17.40
2023-05-23T18:25:42.018Z,17.30
2023-05-23T18:28:09.057Z,17.30
2023-05-23T18:30:36.092Z,17.20
2023-05-23T18:33:02.956Z,17.10
2023-05-23T18:35:32.764Z,17.10
2023-05-23T18:38:02.826Z,17.00
2023-05-23T18:40:29.711Z,17.00
2023-05-23T18:42:59.117Z,16.90
2023-05-23T18:45:31.986Z,16.80
2023-05-23T18:47:58.870Z,16.80
2023-05-23T18:50:26.469Z,16.70
2023-05-23T18:52:53.580Z,16.70
2023-05-23T18:55:20.432Z,16.60
2023-05-23T18:57:49.930Z,16.60
2023-05-23T19:00:17.192Z,16.40
2023-05-23T19:02:45.846Z,16.40
2023-05-23T19:05:13.238Z,16.40
2023-05-23T19:07:40.279Z,16.30
2023-05-23T19:10:07.604Z,16.30
2023-05-23T19:12:34.719Z,16.20
2023-05-23T19:15:02.016Z,16.20
2023-05-23T19:17:32.715Z,16.20
2023-05-23T19:19:59.554Z,16.20
2023-05-23T19:22:29.644Z,16.10
2023-05-23T19:25:00.578Z,16.10
2023-05-23T19:27:27.354Z,16.10
2023-05-23T19:29:54.534Z,16.00
2023-05-23T19:32:21.502Z,16.00
2023-05-23T19:34:48.796Z,15.90
2023-05-23T19:37:15.734Z,15.90
2023-05-23T19:39:45.986Z,15.80
2023-05-23T19:42:13.466Z,15.70
2023-05-23T19:44:42.904Z,15.60
2023-05-23T19:47:09.758Z,15.50
2023-05-23T19:49:36.685Z,15.50
2023-05-23T19:52:03.869Z,15.40
2023-05-23T19:54:30.806Z,15.40
2023-05-23T19:57:00.334Z,15.30
2023-05-23T19:59:27.247Z,15.20
2023-05-23T20:01:54.157Z,15.20
2023-05-23T20:04:24.073Z,15.20
2023-05-23T20:06:51.702Z,15.10
2023-05-23T20:09:18.489Z,15.10
2023-05-23T20:11:45.351Z,15.00
2023-05-23T20:14:15.037Z,15.00
2023-05-23T20:16:42.011Z,15.00
2023-05-23T20:19:09.725Z,14.80
2023-05-23T20:21:36.713Z,14.80
2023-05-23T20:24:03.619Z,14.80
2023-05-23T20:26:30.539Z,14.70
2023-05-23T20:28:57.353Z,14.70
2023-05-23T20:31:24.182Z,14.70
2023-05-23T20:33:52.349Z,14.60
2023-05-23T20:36:20.938Z,14.60
2023-05-23T20:38:47.962Z,14.60
2023-05-23T20:41:15.028Z,14.60
2023-05-23T20:43:41.868Z,14.60
2023-05-23T20:46:11.806Z,14.50
2023-05-23T20:48:38.749Z,14.50
2023-05-23T20:51:06.117Z,14.50
2023-05-23T20:53:33.343Z,14.50
2023-05-23T20:56:00.848Z,14.50
2023-05-23T20:58:28.008Z,14.40
2023-05-23T21:00:55.018Z,14.40
2023-05-23T21:03:22.213Z,14.30
2023-05-23T21:05:49.008Z,14.30
2023-05-23T21:08:15.822Z,14.30
2023-05-23T21:10:43.409Z,14.20
2023-05-23T21:13:11.963Z,14.20
2023-05-23T21:15:38.958Z,14.10
2023-05-23T21:18:05.951Z,14.10
2023-05-23T21:20:32.741Z,14.00
2023-05-23T21:22:59.535Z,14.00
2023-05-23T21:25:26.470Z,14.00
2023-05-23T21:27:53.244Z,13.90
2023-05-23T21:30:20.094Z,13.90
2023-05-23T21:32:47.290Z,13.90
2023-05-23T21:35:14.273Z,13.90
2023-05-23T21:37:41.098Z,13.80
2023-05-23T21:40:08.591Z,13.80
2023-05-23T21:42:35.473Z,13.80
2023-05-23T21:45:02.320Z,13.70
2023-05-23T21:47:29.134Z,13.60
2023-05-23T21:49:56.073Z,13.60
2023-05-23T21:52:22.833Z,13.60
2023-05-23T22:08:58.282Z,13.40
2023-05-23T23:17:18.991Z,12.80
2023-05-23T23:25:28.067Z,12.70
2023-05-23T23:28:07.413Z,12.70
2023-05-23T23:30:44.013Z,12.70
2023-05-23T23:36:28.530Z,12.60
2023-05-23T23:48:23.580Z,12.70
